sensor_id;sensor_type;location;lat;lon;timestamp;temperature;humidity
75961;SHT30;64644;48.914;2.254;2023-09-07T00:01:36;26.27;53.67
75961;SHT30;64644;48.914;2.254;2023-09-07T00:04:02;26.24;53.50
75961;SHT30;64644;48.914;2.254;2023-09-07T00:06:28;26.22;53.46
75961;SHT30;64644;48.914;2.254;2023-09-07T00:08:53;26.18;53.95
75961;SHT30;64644;48.914;2.254;2023-09-07T00:11:19;26.14;53.75
75961;SHT30;64644;48.914;2.254;2023-09-07T00:13:44;26.13;53.92
75961;SHT30;64644;48.914;2.254;2023-09-07T00:16:09;26.11;53.94
75961;SHT30;64644;48.914;2.254;2023-09-07T00:18:36;26.10;54.01
75961;SHT30;64644;48.914;2.254;2023-09-07T00:21:01;26.05;53.99
75961;SHT30;64644;48.914;2.254;2023-09-07T00:23:28;26.04;53.97
75961;SHT30;64644;48.914;2.254;2023-09-07T00:25:54;26.00;54.01
75961;SHT30;64644;48.914;2.254;2023-09-07T00:28:19;25.98;53.93
75961;SHT30;64644;48.914;2.254;2023-09-07T00:30:44;25.97;54.09
75961;SHT30;64644;48.914;2.254;2023-09-07T00:33:10;25.94;53.99
75961;SHT30;64644;48.914;2.254;2023-09-07T00:35:36;25.92;54.02
75961;SHT30;64644;48.914;2.254;2023-09-07T00:38:01;25.89;54.03
75961;SHT30;64644;48.914;2.254;2023-09-07T00:40:27;25.87;54.11
75961;SHT30;64644;48.914;2.254;2023-09-07T00:42:53;25.80;54.08
75961;SHT30;64644;48.914;2.254;2023-09-07T00:45:18;25.82;54.10
75961;SHT30;64644;48.914;2.254;2023-09-07T00:47:44;25.80;54.16
75961;SHT30;64644;48.914;2.254;2023-09-07T00:50:10;25.78;54.12
75961;SHT30;64644;48.914;2.254;2023-09-07T00:52:41;25.78;54.20
75961;SHT30;64644;48.914;2.254;2023-09-07T00:55:08;25.73;54.20
75961;SHT30;64644;48.914;2.254;2023-09-07T00:57:34;25.73;54.22
75961;SHT30;64644;48.914;2.254;2023-09-07T00:59:59;25.70;54.28
75961;SHT30;64644;48.914;2.254;2023-09-07T01:02:25;25.70;54.36
75961;SHT30;64644;48.914;2.254;2023-09-07T01:04:51;25.69;54.31
75961;SHT30;64644;48.914;2.254;2023-09-07T01:07:20;25.68;54.33
75961;SHT30;64644;48.914;2.254;2023-09-07T01:09:53;25.63;54.39
75961;SHT30;64644;48.914;2.254;2023-09-07T01:12:19;25.63;54.41
75961;SHT30;64644;48.914;2.254;2023-09-07T01:14:45;25.61;54.51
75961;SHT30;64644;48.914;2.254;2023-09-07T01:17:11;25.58;54.53
75961;SHT30;64644;48.914;2.254;2023-09-07T01:19:39;25.55;54.55
75961;SHT30;64644;48.914;2.254;2023-09-07T01:22:08;25.53;54.71
75961;SHT30;64644;48.914;2.254;2023-09-07T01:24:34;25.51;54.61
75961;SHT30;64644;48.914;2.254;2023-09-07T01:27:01;25.48;54.49
75961;SHT30;64644;48.914;2.254;2023-09-07T01:29:29;25.44;54.49
75961;SHT30;64644;48.914;2.254;2023-09-07T01:31:55;25.38;54.56
75961;SHT30;64644;48.914;2.254;2023-09-07T01:34:22;25.37;54.49
75961;SHT30;64644;48.914;2.254;2023-09-07T01:36:47;25.33;54.44
75961;SHT30;64644;48.914;2.254;2023-09-07T01:39:13;25.33;54.52
75961;SHT30;64644;48.914;2.254;2023-09-07T01:41:38;25.27;54.51
75961;SHT30;64644;48.914;2.254;2023-09-07T01:44:04;25.24;54.58
75961;SHT30;64644;48.914;2.254;2023-09-07T01:46:29;25.23;54.58
75961;SHT30;64644;48.914;2.254;2023-09-07T01:48:54;25.21;54.49
75961;SHT30;64644;48.914;2.254;2023-09-07T01:51:20;25.18;54.44
75961;SHT30;64644;48.914;2.254;2023-09-07T01:53:48;25.17;54.40
75961;SHT30;64644;48.914;2.254;2023-09-07T01:56:17;25.14;54.30
75961;SHT30;64644;48.914;2.254;2023-09-07T01:58:42;25.13;54.27
75961;SHT30;64644;48.914;2.254;2023-09-07T02:01:27;25.08;54.33
75961;SHT30;64644;48.914;2.254;2023-09-07T02:03:53;25.07;54.34
75961;SHT30;64644;48.914;2.254;2023-09-07T02:06:18;25.07;54.43
75961;SHT30;64644;48.914;2.254;2023-09-07T02:08:44;25.06;54.38
75961;SHT30;64644;48.914;2.254;2023-09-07T02:11:09;25.06;54.33
75961;SHT30;64644;48.914;2.254;2023-09-07T02:13:35;25.02;54.27
75961;SHT30;64644;48.914;2.254;2023-09-07T02:16:04;24.99;54.31
75961;SHT30;64644;48.914;2.254;2023-09-07T02:18:31;24.99;54.50
75961;SHT30;64644;48.914;2.254;2023-09-07T02:21:04;24.99;54.67
75961;SHT30;64644;48.914;2.254;2023-09-07T02:23:31;24.96;54.57
75961;SHT30;64644;48.914;2.254;2023-09-07T02:25:56;24.94;54.52
75961;SHT30;64644;48.914;2.254;2023-09-07T02:28:23;24.90;54.59
75961;SHT30;64644;48.914;2.254;2023-09-07T02:30:49;24.90;54.69
75961;SHT30;64644;48.914;2.254;2023-09-07T02:33:14;24.89;54.75
75961;SHT30;64644;48.914;2.254;2023-09-07T02:35:39;24.86;54.77
75961;SHT30;64644;48.914;2.254;2023-09-07T02:38:05;24.83;54.84
75961;SHT30;64644;48.914;2.254;2023-09-07T02:40:30;24.80;55.00
75961;SHT30;64644;48.914;2.254;2023-09-07T02:42:56;24.80;54.99
75961;SHT30;64644;48.914;2.254;2023-09-07T02:45:21;24.80;55.04
75961;SHT30;64644;48.914;2.254;2023-09-07T02:47:46;24.73;55.06
75961;SHT30;64644;48.914;2.254;2023-09-07T02:50:14;24.76;55.03
75961;SHT30;64644;48.914;2.254;2023-09-07T02:52:41;24.72;54.99
75961;SHT30;64644;48.914;2.254;2023-09-07T02:55:06;24.71;55.03
75961;SHT30;64644;48.914;2.254;2023-09-07T02:57:32;24.73;55.02
75961;SHT30;64644;48.914;2.254;2023-09-07T02:59:57;24.68;54.92
75961;SHT30;64644;48.914;2.254;2023-09-07T03:02:22;24.66;54.92
75961;SHT30;64644;48.914;2.254;2023-09-07T03:04:52;24.66;54.96
75961;SHT30;64644;48.914;2.254;2023-09-07T03:07:17;24.63;55.13
75961;SHT30;64644;48.914;2.254;2023-09-07T03:09:43;24.63;55.01
75961;SHT30;64644;48.914;2.254;2023-09-07T03:12:09;24.61;55.23
75961;SHT30;64644;48.914;2.254;2023-09-07T03:14:35;24.61;55.13
75961;SHT30;64644;48.914;2.254;2023-09-07T03:17:00;24.59;55.13
75961;SHT30;64644;48.914;2.254;2023-09-07T03:19:26;24.55;55.28
75961;SHT30;64644;48.914;2.254;2023-09-07T03:21:52;24.55;55.43
75961;SHT30;64644;48.914;2.254;2023-09-07T03:24:17;24.52;55.31
75961;SHT30;64644;48.914;2.254;2023-09-07T03:26:43;24.51;55.36
75961;SHT30;64644;48.914;2.254;2023-09-07T03:29:09;24.49;55.29
75961;SHT30;64644;48.914;2.254;2023-09-07T03:31:34;24.45;55.50
75961;SHT30;64644;48.914;2.254;2023-09-07T03:34:00;24.42;55.53
75961;SHT30;64644;48.914;2.254;2023-09-07T03:36:26;24.42;55.76
75961;SHT30;64644;48.914;2.254;2023-09-07T03:38:51;24.37;55.93
75961;SHT30;64644;48.914;2.254;2023-09-07T03:41:16;24.34;56.41
75961;SHT30;64644;48.914;2.254;2023-09-07T03:43:42;24.32;56.44
75961;SHT30;64644;48.914;2.254;2023-09-07T03:46:07;24.28;56.55
75961;SHT30;64644;48.914;2.254;2023-09-07T03:48:32;24.22;56.76
75961;SHT30;64644;48.914;2.254;2023-09-07T03:50:58;24.16;57.08
75961;SHT30;64644;48.914;2.254;2023-09-07T03:53:23;24.14;57.26
75961;SHT30;64644;48.914;2.254;2023-09-07T03:55:48;24.13;57.49
75961;SHT30;64644;48.914;2.254;2023-09-07T03:58:14;24.11;57.51
75961;SHT30;64644;48.914;2.254;2023-09-07T04:00:43;24.07;57.72
75961;SHT30;64644;48.914;2.254;2023-09-07T04:03:09;24.03;57.94
75961;SHT30;64644;48.914;2.254;2023-09-07T04:05:37;23.99;58.04
75961;SHT30;64644;48.914;2.254;2023-09-07T04:08:04;23.94;58.25
75961;SHT30;64644;48.914;2.254;2023-09-07T04:10:29;23.89;58.54
75961;SHT30;64644;48.914;2.254;2023-09-07T04:12:55;23.87;58.77
75961;SHT30;64644;48.914;2.254;2023-09-07T04:15:20;23.87;58.88
75961;SHT30;64644;48.914;2.254;2023-09-07T04:17:45;23.83;58.87
75961;SHT30;64644;48.914;2.254;2023-09-07T04:20:11;23.79;58.96
75961;SHT30;64644;48.914;2.254;2023-09-07T04:22:39;23.73;59.16
75961;SHT30;64644;48.914;2.254;2023-09-07T04:25:05;23.73;59.57
75961;SHT30;64644;48.914;2.254;2023-09-07T04:27:31;23.72;59.54
75961;SHT30;64644;48.914;2.254;2023-09-07T04:29:56;23.70;59.73
75961;SHT30;64644;48.914;2.254;2023-09-07T04:32:22;23.69;59.80
75961;SHT30;64644;48.914;2.254;2023-09-07T04:34:47;23.69;59.82
75961;SHT30;64644;48.914;2.254;2023-09-07T04:37:12;23.66;59.75
75961;SHT30;64644;48.914;2.254;2023-09-07T04:39:38;23.65;59.80
75961;SHT30;64644;48.914;2.254;2023-09-07T04:42:05;23.59;59.85
75961;SHT30;64644;48.914;2.254;2023-09-07T04:44:30;23.62;60.00
75961;SHT30;64644;48.914;2.254;2023-09-07T04:46:56;23.59;60.18
75961;SHT30;64644;48.914;2.254;2023-09-07T04:49:22;23.61;60.16
75961;SHT30;64644;48.914;2.254;2023-09-07T04:51:47;23.59;60.16
75961;SHT30;64644;48.914;2.254;2023-09-07T04:54:12;23.61;60.21
75961;SHT30;64644;48.914;2.254;2023-09-07T04:56:38;23.61;60.18
75961;SHT30;64644;48.914;2.254;2023-09-07T04:59:03;23.62;60.06
75961;SHT30;64644;48.914;2.254;2023-09-07T05:01:29;23.59;60.22
75961;SHT30;64644;48.914;2.254;2023-09-07T05:03:54;23.58;60.27
75961;SHT30;64644;48.914;2.254;2023-09-07T05:06:20;23.55;60.42
75961;SHT30;64644;48.914;2.254;2023-09-07T05:08:48;23.54;60.35
75961;SHT30;64644;48.914;2.254;2023-09-07T05:11:13;23.52;60.56
75961;SHT30;64644;48.914;2.254;2023-09-07T05:13:39;23.48;60.53
75961;SHT30;64644;48.914;2.254;2023-09-07T05:16:04;23.47;60.64
75961;SHT30;64644;48.914;2.254;2023-09-07T05:18:30;23.44;60.75
75961;SHT30;64644;48.914;2.254;2023-09-07T05:20:55;23.41;60.78
75961;SHT30;64644;48.914;2.254;2023-09-07T05:23:21;23.39;60.96
75961;SHT30;64644;48.914;2.254;2023-09-07T05:25:49;23.41;61.01
75961;SHT30;64644;48.914;2.254;2023-09-07T05:28:16;23.38;61.27
75961;SHT30;64644;48.914;2.254;2023-09-07T05:30:42;23.35;61.32
75961;SHT30;64644;48.914;2.254;2023-09-07T05:33:11;23.34;61.51
75961;SHT30;64644;48.914;2.254;2023-09-07T05:35:37;23.30;61.60
75961;SHT30;64644;48.914;2.254;2023-09-07T05:38:04;23.28;61.80
75961;SHT30;64644;48.914;2.254;2023-09-07T05:40:33;23.27;61.94
75961;SHT30;64644;48.914;2.254;2023-09-07T05:42:59;23.27;61.89
75961;SHT30;64644;48.914;2.254;2023-09-07T05:45:25;23.27;62.00
75961;SHT30;64644;48.914;2.254;2023-09-07T05:47:50;23.25;61.95
75961;SHT30;64644;48.914;2.254;2023-09-07T05:50:15;23.24;62.06
75961;SHT30;64644;48.914;2.254;2023-09-07T05:52:41;23.24;61.98
75961;SHT30;64644;48.914;2.254;2023-09-07T05:55:06;23.22;62.00
75961;SHT30;64644;48.914;2.254;2023-09-07T05:57:32;23.18;61.98
75961;SHT30;64644;48.914;2.254;2023-09-07T05:59:57;23.17;62.01
75961;SHT30;64644;48.914;2.254;2023-09-07T06:02:22;23.20;62.10
75961;SHT30;64644;48.914;2.254;2023-09-07T06:04:48;23.14;62.22
75961;SHT30;64644;48.914;2.254;2023-09-07T06:07:13;23.14;62.25
75961;SHT30;64644;48.914;2.254;2023-09-07T06:09:38;23.14;62.21
75961;SHT30;64644;48.914;2.254;2023-09-07T06:12:04;23.15;62.18
75961;SHT30;64644;48.914;2.254;2023-09-07T06:14:29;23.15;62.26
75961;SHT30;64644;48.914;2.254;2023-09-07T06:16:55;23.17;62.32
75961;SHT30;64644;48.914;2.254;2023-09-07T06:19:20;23.21;62.33
75961;SHT30;64644;48.914;2.254;2023-09-07T06:21:45;23.24;62.16
75961;SHT30;64644;48.914;2.254;2023-09-07T06:24:11;23.24;62.05
75961;SHT30;64644;48.914;2.254;2023-09-07T06:26:36;23.27;62.01
75961;SHT30;64644;48.914;2.254;2023-09-07T06:29:02;23.28;62.00
75961;SHT30;64644;48.914;2.254;2023-09-07T06:31:27;23.30;62.12
75961;SHT30;64644;48.914;2.254;2023-09-07T06:33:52;23.32;62.29
75961;SHT30;64644;48.914;2.254;2023-09-07T06:36:17;23.37;62.25
75961;SHT30;64644;48.914;2.254;2023-09-07T06:38:43;23.41;62.32
75961;SHT30;64644;48.914;2.254;2023-09-07T06:41:08;23.41;62.13
75961;SHT30;64644;48.914;2.254;2023-09-07T06:43:34;23.45;61.60
75961;SHT30;64644;48.914;2.254;2023-09-07T06:46:07;23.48;61.00
75961;SHT30;64644;48.914;2.254;2023-09-07T06:48:33;23.54;60.82
75961;SHT30;64644;48.914;2.254;2023-09-07T06:51:06;23.58;60.63
75961;SHT30;64644;48.914;2.254;2023-09-07T06:53:31;23.65;60.61
75961;SHT30;64644;48.914;2.254;2023-09-07T06:55:58;23.66;60.46
75961;SHT30;64644;48.914;2.254;2023-09-07T06:58:23;23.70;60.47
75961;SHT30;64644;48.914;2.254;2023-09-07T07:00:49;23.75;60.32
75961;SHT30;64644;48.914;2.254;2023-09-07T07:03:14;23.79;60.04
75961;SHT30;64644;48.914;2.254;2023-09-07T07:05:39;23.80;59.97
75961;SHT30;64644;48.914;2.254;2023-09-07T07:08:05;23.84;59.77
75961;SHT30;64644;48.914;2.254;2023-09-07T07:10:30;23.87;59.84
75961;SHT30;64644;48.914;2.254;2023-09-07T07:12:55;23.93;59.87
75961;SHT30;64644;48.914;2.254;2023-09-07T07:15:21;23.94;59.80
75961;SHT30;64644;48.914;2.254;2023-09-07T07:17:46;24.01;59.84
75961;SHT30;64644;48.914;2.254;2023-09-07T07:20:11;24.06;59.72
75961;SHT30;64644;48.914;2.254;2023-09-07T07:22:37;24.09;59.62
75961;SHT30;64644;48.914;2.254;2023-09-07T07:25:03;24.17;59.44
75961;SHT30;64644;48.914;2.254;2023-09-07T07:27:32;24.20;59.36
75961;SHT30;64644;48.914;2.254;2023-09-07T07:29:57;24.27;59.23
75961;SHT30;64644;48.914;2.254;2023-09-07T07:32:23;24.29;59.11
75961;SHT30;64644;48.914;2.254;2023-09-07T07:34:48;24.37;59.19
75961;SHT30;64644;48.914;2.254;2023-09-07T07:37:14;24.41;59.10
75961;SHT30;64644;48.914;2.254;2023-09-07T07:39:39;24.45;59.04
75961;SHT30;64644;48.914;2.254;2023-09-07T07:42:05;24.49;59.04
75961;SHT30;64644;48.914;2.254;2023-09-07T07:44:31;24.55;58.50
75961;SHT30;64644;48.914;2.254;2023-09-07T07:46:57;24.56;58.48
75961;SHT30;64644;48.914;2.254;2023-09-07T07:49:22;24.65;58.50
75961;SHT30;64644;48.914;2.254;2023-09-07T07:51:48;24.66;58.63
75961;SHT30;64644;48.914;2.254;2023-09-07T07:54:13;24.73;58.45
75961;SHT30;64644;48.914;2.254;2023-09-07T07:56:39;24.79;58.29
75961;SHT30;64644;48.914;2.254;2023-09-07T07:59:05;24.90;58.50
75961;SHT30;64644;48.914;2.254;2023-09-07T08:01:30;24.93;58.49
75961;SHT30;64644;48.914;2.254;2023-09-07T08:03:56;24.96;58.34
75961;SHT30;64644;48.914;2.254;2023-09-07T08:06:21;25.02;57.89
75961;SHT30;64644;48.914;2.254;2023-09-07T08:08:46;25.04;58.03
75961;SHT30;64644;48.914;2.254;2023-09-07T08:11:12;25.08;57.52
75961;SHT30;64644;48.914;2.254;2023-09-07T08:13:39;25.10;57.64
75961;SHT30;64644;48.914;2.254;2023-09-07T08:16:05;25.16;57.91
75961;SHT30;64644;48.914;2.254;2023-09-07T08:18:33;25.23;58.31
75961;SHT30;64644;48.914;2.254;2023-09-07T08:20:59;25.27;58.22
75961;SHT30;64644;48.914;2.254;2023-09-07T08:23:24;25.34;58.63
75961;SHT30;64644;48.914;2.254;2023-09-07T08:25:53;25.41;58.49
75961;SHT30;64644;48.914;2.254;2023-09-07T08:28:19;25.45;58.44
75961;SHT30;64644;48.914;2.254;2023-09-07T08:30:48;25.51;58.39
75961;SHT30;64644;48.914;2.254;2023-09-07T08:33:13;25.55;58.12
75961;SHT30;64644;48.914;2.254;2023-09-07T08:35:39;25.63;58.34
75961;SHT30;64644;48.914;2.254;2023-09-07T08:38:09;25.66;58.45
75961;SHT30;64644;48.914;2.254;2023-09-07T08:40:35;25.73;57.21
75961;SHT30;64644;48.914;2.254;2023-09-07T08:43:04;25.78;56.97
75961;SHT30;64644;48.914;2.254;2023-09-07T08:45:31;25.83;57.44
75961;SHT30;64644;48.914;2.254;2023-09-07T08:48:01;25.90;57.77
75961;SHT30;64644;48.914;2.254;2023-09-07T08:50:28;25.93;56.44
75961;SHT30;64644;48.914;2.254;2023-09-07T08:52:54;25.96;56.51
75961;SHT30;64644;48.914;2.254;2023-09-07T08:55:20;26.03;57.20
75961;SHT30;64644;48.914;2.254;2023-09-07T08:57:46;26.08;57.15
75961;SHT30;64644;48.914;2.254;2023-09-07T09:00:12;26.16;57.23
75961;SHT30;64644;48.914;2.254;2023-09-07T09:02:42;26.22;57.49
75961;SHT30;64644;48.914;2.254;2023-09-07T09:05:09;26.31;57.37
75961;SHT30;64644;48.914;2.254;2023-09-07T09:07:35;26.39;57.65
75961;SHT30;64644;48.914;2.254;2023-09-07T09:10:07;26.44;57.40
75961;SHT30;64644;48.914;2.254;2023-09-07T09:12:34;26.51;55.73
75961;SHT30;64644;48.914;2.254;2023-09-07T09:15:00;26.56;55.90
75961;SHT30;64644;48.914;2.254;2023-09-07T09:17:29;26.66;56.36
75961;SHT30;64644;48.914;2.254;2023-09-07T09:19:54;26.71;56.78
75961;SHT30;64644;48.914;2.254;2023-09-07T09:22:20;26.78;56.21
75961;SHT30;64644;48.914;2.254;2023-09-07T09:24:49;26.83;56.12
75961;SHT30;64644;48.914;2.254;2023-09-07T09:27:14;26.92;56.09
75961;SHT30;64644;48.914;2.254;2023-09-07T09:29:40;26.99;56.27
75961;SHT30;64644;48.914;2.254;2023-09-07T09:32:06;27.10;56.26
75961;SHT30;64644;48.914;2.254;2023-09-07T09:34:52;27.18;56.47
75961;SHT30;64644;48.914;2.254;2023-09-07T09:37:17;27.26;55.91
75961;SHT30;64644;48.914;2.254;2023-09-07T09:39:49;27.37;56.13
75961;SHT30;64644;48.914;2.254;2023-09-07T09:42:14;27.44;55.44
75961;SHT30;64644;48.914;2.254;2023-09-07T09:44:41;27.48;54.05
75961;SHT30;64644;48.914;2.254;2023-09-07T09:47:08;27.55;54.11
75961;SHT30;64644;48.914;2.254;2023-09-07T09:49:33;27.61;54.04
75961;SHT30;64644;48.914;2.254;2023-09-07T09:51:59;27.70;54.35
75961;SHT30;64644;48.914;2.254;2023-09-07T09:54:26;27.80;54.27
75961;SHT30;64644;48.914;2.254;2023-09-07T09:56:53;27.90;53.90
75961;SHT30;64644;48.914;2.254;2023-09-07T09:59:19;27.99;54.32
75961;SHT30;64644;48.914;2.254;2023-09-07T10:01:46;28.11;54.25
75961;SHT30;64644;48.914;2.254;2023-09-07T10:04:14;28.20;53.28
75961;SHT30;64644;48.914;2.254;2023-09-07T10:06:50;28.29;53.55
75961;SHT30;64644;48.914;2.254;2023-09-07T10:09:18;28.38;52.76
75961;SHT30;64644;48.914;2.254;2023-09-07T10:11:51;28.45;52.50
75961;SHT30;64644;48.914;2.254;2023-09-07T10:14:18;28.52;51.93
75961;SHT30;64644;48.914;2.254;2023-09-07T10:16:44;28.62;52.05
75961;SHT30;64644;48.914;2.254;2023-09-07T10:19:15;28.72;51.56
75961;SHT30;64644;48.914;2.254;2023-09-07T10:21:41;28.82;51.47
75961;SHT30;64644;48.914;2.254;2023-09-07T10:24:08;28.92;51.06
75961;SHT30;64644;48.914;2.254;2023-09-07T10:26:34;29.04;51.04
75961;SHT30;64644;48.914;2.254;2023-09-07T10:29:00;29.10;50.76
75961;SHT30;64644;48.914;2.254;2023-09-07T10:31:28;29.21;50.57
75961;SHT30;64644;48.914;2.254;2023-09-07T10:33:55;29.30;50.89
75961;SHT30;64644;48.914;2.254;2023-09-07T10:36:26;29.39;50.05
75961;SHT30;64644;48.914;2.254;2023-09-07T10:38:53;29.51;50.38
75961;SHT30;64644;48.914;2.254;2023-09-07T10:41:19;29.62;50.10
75961;SHT30;64644;48.914;2.254;2023-09-07T10:43:53;29.70;49.73
75961;SHT30;64644;48.914;2.254;2023-09-07T10:46:20;29.86;49.67
75961;SHT30;64644;48.914;2.254;2023-09-07T10:48:48;29.94;49.57
75961;SHT30;64644;48.914;2.254;2023-09-07T10:51:14;30.06;49.21
75961;SHT30;64644;48.914;2.254;2023-09-07T10:53:39;30.13;48.87
75961;SHT30;64644;48.914;2.254;2023-09-07T10:56:06;30.24;49.30
75961;SHT30;64644;48.914;2.254;2023-09-07T10:58:33;30.34;49.54
75961;SHT30;64644;48.914;2.254;2023-09-07T11:00:59;30.45;49.24
75961;SHT30;64644;48.914;2.254;2023-09-07T11:03:25;30.56;48.14
75961;SHT30;64644;48.914;2.254;2023-09-07T11:06:01;30.62;47.96
75961;SHT30;64644;48.914;2.254;2023-09-07T11:08:29;30.76;48.32
75961;SHT30;64644;48.914;2.254;2023-09-07T11:10:55;30.86;47.77
75961;SHT30;64644;48.914;2.254;2023-09-07T11:13:21;30.90;47.28
75961;SHT30;64644;48.914;2.254;2023-09-07T11:15:48;30.99;46.73
75961;SHT30;64644;48.914;2.254;2023-09-07T11:18:13;31.09;47.08
75961;SHT30;64644;48.914;2.254;2023-09-07T11:20:39;31.18;47.08
75961;SHT30;64644;48.914;2.254;2023-09-07T11:23:05;31.31;47.67
75961;SHT30;64644;48.914;2.254;2023-09-07T11:25:37;31.42;47.82
75961;SHT30;64644;48.914;2.254;2023-09-07T11:28:04;31.52;46.69
75961;SHT30;64644;48.914;2.254;2023-09-07T11:30:31;31.54;45.37
75961;SHT30;64644;48.914;2.254;2023-09-07T11:33:05;31.57;45.44
75961;SHT30;64644;48.914;2.254;2023-09-07T11:35:31;31.65;45.70
75961;SHT30;64644;48.914;2.254;2023-09-07T11:37:57;31.71;45.59
75961;SHT30;64644;48.914;2.254;2023-09-07T11:40:24;31.82;45.88
75961;SHT30;64644;48.914;2.254;2023-09-07T11:42:49;31.90;45.66
75961;SHT30;64644;48.914;2.254;2023-09-07T11:45:14;31.99;45.74
75961;SHT30;64644;48.914;2.254;2023-09-07T11:47:40;32.06;45.48
75961;SHT30;64644;48.914;2.254;2023-09-07T11:50:06;32.16;45.01
75961;SHT30;64644;48.914;2.254;2023-09-07T11:52:32;32.20;44.81
75961;SHT30;64644;48.914;2.254;2023-09-07T11:54:57;32.24;44.90
75961;SHT30;64644;48.914;2.254;2023-09-07T11:57:23;32.32;44.55
75961;SHT30;64644;48.914;2.254;2023-09-07T11:59:48;32.41;45.45
75961;SHT30;64644;48.914;2.254;2023-09-07T12:02:14;32.51;44.79
75961;SHT30;64644;48.914;2.254;2023-09-07T12:04:40;32.55;45.05
75961;SHT30;64644;48.914;2.254;2023-09-07T12:07:06;32.64;43.94
75961;SHT30;64644;48.914;2.254;2023-09-07T12:09:31;32.68;43.96
75961;SHT30;64644;48.914;2.254;2023-09-07T12:11:56;32.74;43.82
75961;SHT30;64644;48.914;2.254;2023-09-07T12:14:22;32.83;43.67
75961;SHT30;64644;48.914;2.254;2023-09-07T12:16:48;32.85;43.57
75961;SHT30;64644;48.914;2.254;2023-09-07T12:19:13;32.89;42.72
75961;SHT30;64644;48.914;2.254;2023-09-07T12:21:38;32.95;43.41
75961;SHT30;64644;48.914;2.254;2023-09-07T12:24:04;33.00;43.53
75961;SHT30;64644;48.914;2.254;2023-09-07T12:26:30;33.04;42.17
75961;SHT30;64644;48.914;2.254;2023-09-07T12:28:56;33.07;42.94
75961;SHT30;64644;48.914;2.254;2023-09-07T12:31:21;33.14;42.72
75961;SHT30;64644;48.914;2.254;2023-09-07T12:33:47;33.24;43.04
75961;SHT30;64644;48.914;2.254;2023-09-07T12:36:12;33.34;43.51
75961;SHT30;64644;48.914;2.254;2023-09-07T12:38:38;33.38;42.17
75961;SHT30;64644;48.914;2.254;2023-09-07T12:41:03;33.41;42.08
75961;SHT30;64644;48.914;2.254;2023-09-07T12:43:28;33.50;42.84
75961;SHT30;64644;48.914;2.254;2023-09-07T12:45:54;33.58;41.90
75961;SHT30;64644;48.914;2.254;2023-09-07T12:48:20;33.59;42.00
75961;SHT30;64644;48.914;2.254;2023-09-07T12:50:46;33.64;41.74
75961;SHT30;64644;48.914;2.254;2023-09-07T12:53:12;33.66;41.25
75961;SHT30;64644;48.914;2.254;2023-09-07T12:55:37;33.69;41.51
75961;SHT30;64644;48.914;2.254;2023-09-07T12:58:03;33.75;42.21
75961;SHT30;64644;48.914;2.254;2023-09-07T13:00:28;33.79;41.74
75961;SHT30;64644;48.914;2.254;2023-09-07T13:02:54;33.81;41.87
75961;SHT30;64644;48.914;2.254;2023-09-07T13:05:21;33.85;41.45
75961;SHT30;64644;48.914;2.254;2023-09-07T13:07:55;33.88;40.78
75961;SHT30;64644;48.914;2.254;2023-09-07T13:10:23;33.83;41.02
75961;SHT30;64644;48.914;2.254;2023-09-07T13:12:49;33.81;40.28
75961;SHT30;64644;48.914;2.254;2023-09-07T13:15:14;33.75;40.48
75961;SHT30;64644;48.914;2.254;2023-09-07T13:17:42;33.73;40.38
75961;SHT30;64644;48.914;2.254;2023-09-07T13:20:11;33.75;41.16
75961;SHT30;64644;48.914;2.254;2023-09-07T13:22:37;33.72;41.00
75961;SHT30;64644;48.914;2.254;2023-09-07T13:25:03;33.66;41.64
75961;SHT30;64644;48.914;2.254;2023-09-07T13:27:30;33.62;41.51
75961;SHT30;64644;48.914;2.254;2023-09-07T13:29:56;33.61;41.53
75961;SHT30;64644;48.914;2.254;2023-09-07T13:32:22;33.57;41.43
75961;SHT30;64644;48.914;2.254;2023-09-07T13:34:48;33.48;41.68
75961;SHT30;64644;48.914;2.254;2023-09-07T13:37:16;33.43;41.37
75961;SHT30;64644;48.914;2.254;2023-09-07T13:39:51;33.35;41.55
75961;SHT30;64644;48.914;2.254;2023-09-07T13:42:16;33.23;41.68
75961;SHT30;64644;48.914;2.254;2023-09-07T13:44:41;33.14;42.41
75961;SHT30;64644;48.914;2.254;2023-09-07T13:47:09;33.04;42.15
75961;SHT30;64644;48.914;2.254;2023-09-07T13:49:37;32.95;41.54
75961;SHT30;64644;48.914;2.254;2023-09-07T13:52:02;32.92;41.80
75961;SHT30;64644;48.914;2.254;2023-09-07T13:54:28;32.89;42.23
75961;SHT30;64644;48.914;2.254;2023-09-07T13:57:00;32.87;43.01
75961;SHT30;64644;48.914;2.254;2023-09-07T13:59:26;32.82;42.72
75961;SHT30;64644;48.914;2.254;2023-09-07T14:01:53;32.75;42.91
75961;SHT30;64644;48.914;2.254;2023-09-07T14:04:19;32.72;42.82
75961;SHT30;64644;48.914;2.254;2023-09-07T14:06:44;32.64;42.90
75961;SHT30;64644;48.914;2.254;2023-09-07T14:09:10;32.58;42.52
75961;SHT30;64644;48.914;2.254;2023-09-07T14:11:35;32.54;41.75
75961;SHT30;64644;48.914;2.254;2023-09-07T14:14:00;32.47;42.33
75961;SHT30;64644;48.914;2.254;2023-09-07T14:16:26;32.42;43.20
75961;SHT30;64644;48.914;2.254;2023-09-07T14:18:51;32.37;43.88
75961;SHT30;64644;48.914;2.254;2023-09-07T14:21:17;32.31;44.23
75961;SHT30;64644;48.914;2.254;2023-09-07T14:23:43;32.24;44.08
75961;SHT30;64644;48.914;2.254;2023-09-07T14:26:09;32.20;44.59
75961;SHT30;64644;48.914;2.254;2023-09-07T14:28:35;32.16;44.97
75961;SHT30;64644;48.914;2.254;2023-09-07T14:31:01;32.06;45.11
75961;SHT30;64644;48.914;2.254;2023-09-07T14:33:29;32.00;44.71
75961;SHT30;64644;48.914;2.254;2023-09-07T14:35:55;31.97;43.88
75961;SHT30;64644;48.914;2.254;2023-09-07T14:38:21;31.90;45.26
75961;SHT30;64644;48.914;2.254;2023-09-07T14:40:46;31.85;44.96
75961;SHT30;64644;48.914;2.254;2023-09-07T14:43:14;31.80;45.85
75961;SHT30;64644;48.914;2.254;2023-09-07T14:45:39;31.79;45.14
75961;SHT30;64644;48.914;2.254;2023-09-07T14:48:05;31.76;44.75
75961;SHT30;64644;48.914;2.254;2023-09-07T14:50:31;31.73;45.31
75961;SHT30;64644;48.914;2.254;2023-09-07T14:52:56;31.69;44.76
75961;SHT30;64644;48.914;2.254;2023-09-07T14:55:21;31.68;43.84
75961;SHT30;64644;48.914;2.254;2023-09-07T14:57:47;31.62;45.43
75961;SHT30;64644;48.914;2.254;2023-09-07T15:00:12;31.58;45.66
75961;SHT30;64644;48.914;2.254;2023-09-07T15:02:38;31.54;45.98
75961;SHT30;64644;48.914;2.254;2023-09-07T15:05:03;31.52;45.84
75961;SHT30;64644;48.914;2.254;2023-09-07T15:07:29;31.48;45.69
75961;SHT30;64644;48.914;2.254;2023-09-07T15:09:54;31.45;45.54
75961;SHT30;64644;48.914;2.254;2023-09-07T15:12:19;31.38;45.07
75961;SHT30;64644;48.914;2.254;2023-09-07T15:14:45;31.33;45.79
75961;SHT30;64644;48.914;2.254;2023-09-07T15:17:11;31.30;46.21
75961;SHT30;64644;48.914;2.254;2023-09-07T15:19:37;31.27;46.50
75961;SHT30;64644;48.914;2.254;2023-09-07T15:22:02;31.21;46.88
75961;SHT30;64644;48.914;2.254;2023-09-07T15:24:28;31.18;46.07